sensor_id;sensor_type;location;lat;lon;timestamp;P1;durP1;ratioP1;P2;durP2;ratioP2
52432;SDS011;38352;53.244;6.594;2023-02-28T00:00:04;7.53;;;3.58;;
52432;SDS011;38352;53.244;6.594;2023-02-28T00:02:37;10.38;;;3.67;;
52432;SDS011;38352;53.244;6.594;2023-02-28T00:05:04;8.95;;;3.10;;
52432;SDS011;38352;53.244;6.594;2023-02-28T00:07:30;10.90;;;3.28;;
52432;SDS011;38352;53.244;6.594;2023-02-28T00:09:57;7.47;;;3.63;;
52432;SDS011;38352;53.244;6.594;2023-02-28T00:12:23;8.93;;;3.25;;
52432;SDS011;38352;53.244;6.594;2023-02-28T00:14:49;7.35;;;3.13;;
52432;SDS011;38352;53.244;6.594;2023-02-28T00:17:15;11.55;;;3.47;;
52432;SDS011;38352;53.244;6.594;2023-02-28T00:19:47;9.20;;;3.60;;
52432;SDS011;38352;53.244;6.594;2023-02-28T00:22:13;8.38;;;4.38;;
52432;SDS011;38352;53.244;6.594;2023-02-28T00:24:39;10.98;;;3.60;;
52432;SDS011;38352;53.244;6.594;2023-02-28T00:27:05;8.55;;;3.50;;
52432;SDS011;38352;53.244;6.594;2023-02-28T00:29:31;9.30;;;3.38;;
52432;SDS011;38352;53.244;6.594;2023-02-28T00:31:57;7.30;;;3.67;;
52432;SDS011;38352;53.244;6.594;2023-02-28T00:34:23;7.55;;;3.38;;
52432;SDS011;38352;53.244;6.594;2023-02-28T00:36:50;6.97;;;2.97;;
52432;SDS011;38352;53.244;6.594;2023-02-28T00:39:16;9.60;;;3.55;;
52432;SDS011;38352;53.244;6.594;2023-02-28T00:41:42;13.07;;;4.07;;
52432;SDS011;38352;53.244;6.594;2023-02-28T00:44:08;8.60;;;3.60;;
52432;SDS011;38352;53.244;6.594;2023-02-28T00:46:34;9.82;;;3.85;;
52432;SDS011;38352;53.244;6.594;2023-02-28T00:49:00;12.52;;;3.53;;
52432;SDS011;38352;53.244;6.594;2023-02-28T00:51:26;11.85;;;3.40;;
52432;SDS011;38352;53.244;6.594;2023-02-28T00:53:52;12.98;;;3.97;;
52432;SDS011;38352;53.244;6.594;2023-02-28T00:56:19;9.60;;;4.03;;
52432;SDS011;38352;53.244;6.594;2023-02-28T00:58:45;10.65;;;3.20;;
52432;SDS011;38352;53.244;6.594;2023-02-28T01:01:11;6.97;;;3.80;;
52432;SDS011;38352;53.244;6.594;2023-02-28T01:03:37;9.23;;;3.40;;
52432;SDS011;38352;53.244;6.594;2023-02-28T01:06:03;7.90;;;3.75;;
52432;SDS011;38352;53.244;6.594;2023-02-28T01:08:29;13.60;;;3.65;;
52432;SDS011;38352;53.244;6.594;2023-02-28T01:10:56;9.93;;;3.30;;
52432;SDS011;38352;53.244;6.594;2023-02-28T01:13:22;10.82;;;3.90;;
52432;SDS011;38352;53.244;6.594;2023-02-28T01:15:51;6.40;;;3.28;;
52432;SDS011;38352;53.244;6.594;2023-02-28T01:18:17;7.93;;;3.55;;
52432;SDS011;38352;53.244;6.594;2023-02-28T01:20:43;10.15;;;3.28;;
52432;SDS011;38352;53.244;6.594;2023-02-28T01:23:11;7.32;;;3.40;;
52432;SDS011;38352;53.244;6.594;2023-02-28T01:25:37;9.43;;;3.50;;
52432;SDS011;38352;53.244;6.594;2023-02-28T01:28:03;13.70;;;3.80;;
52432;SDS011;38352;53.244;6.594;2023-02-28T01:30:30;9.98;;;3.40;;
52432;SDS011;38352;53.244;6.594;2023-02-28T01:32:57;9.85;;;3.30;;
52432;SDS011;38352;53.244;6.594;2023-02-28T01:35:23;9.50;;;3.55;;
52432;SDS011;38352;53.244;6.594;2023-02-28T01:37:49;7.40;;;3.13;;
52432;SDS011;38352;53.244;6.594;2023-02-28T01:40:15;8.75;;;3.38;;
52432;SDS011;38352;53.244;6.594;2023-02-28T01:42:41;7.30;;;3.00;;
52432;SDS011;38352;53.244;6.594;2023-02-28T01:47:38;11.50;;;3.53;;
52432;SDS011;38352;53.244;6.594;2023-02-28T01:50:07;11.45;;;3.10;;
52432;SDS011;38352;53.244;6.594;2023-02-28T01:52:35;10.57;;;3.63;;
52432;SDS011;38352;53.244;6.594;2023-02-28T01:55:02;6.93;;;2.92;;
52432;SDS011;38352;53.244;6.594;2023-02-28T01:58:04;7.82;;;2.67;;
52432;SDS011;38352;53.244;6.594;2023-02-28T02:00:23;11.45;;;3.65;;
52432;SDS011;38352;53.244;6.594;2023-02-28T02:02:50;7.22;;;3.00;;
52432;SDS011;38352;53.244;6.594;2023-02-28T02:05:19;8.82;;;3.55;;
52432;SDS011;38352;53.244;6.594;2023-02-28T02:07:45;9.50;;;3.08;;
52432;SDS011;38352;53.244;6.594;2023-02-28T02:15:19;8.00;;;2.65;;
52432;SDS011;38352;53.244;6.594;2023-02-28T02:17:51;11.80;;;3.90;;
52432;SDS011;38352;53.244;6.594;2023-02-28T02:20:42;8.98;;;2.88;;
52432;SDS011;38352;53.244;6.594;2023-02-28T02:25:45;8.70;;;3.20;;
52432;SDS011;38352;53.244;6.594;2023-02-28T02:35:56;10.27;;;2.92;;
52432;SDS011;38352;53.244;6.594;2023-02-28T02:38:33;7.78;;;2.70;;
52432;SDS011;38352;53.244;6.594;2023-02-28T02:41:14;15.10;;;3.30;;
52432;SDS011;38352;53.244;6.594;2023-02-28T02:43:47;5.32;;;2.55;;
52432;SDS011;38352;53.244;6.594;2023-02-28T02:46:15;10.23;;;3.10;;
52432;SDS011;38352;53.244;6.594;2023-02-28T02:48:43;9.00;;;2.55;;
52432;SDS011;38352;53.244;6.594;2023-02-28T02:51:11;12.40;;;3.55;;
52432;SDS011;38352;53.244;6.594;2023-02-28T02:53:45;12.05;;;3.30;;
52432;SDS011;38352;53.244;6.594;2023-02-28T02:56:14;10.88;;;3.65;;
52432;SDS011;38352;53.244;6.594;2023-02-28T02:58:41;8.30;;;3.08;;
52432;SDS011;38352;53.244;6.594;2023-02-28T03:01:10;12.20;;;3.25;;
52432;SDS011;38352;53.244;6.594;2023-02-28T03:03:38;8.55;;;3.13;;
52432;SDS011;38352;53.244;6.594;2023-02-28T03:06:04;10.20;;;2.85;;
52432;SDS011;38352;53.244;6.594;2023-02-28T03:08:34;8.88;;;3.03;;
52432;SDS011;38352;53.244;6.594;2023-02-28T03:11:01;10.07;;;3.22;;
52432;SDS011;38352;53.244;6.594;2023-02-28T03:13:49;10.02;;;3.35;;
52432;SDS011;38352;53.244;6.594;2023-02-28T03:26:29;17.77;;;10.27;;
52432;SDS011;38352;53.244;6.594;2023-02-28T03:29:05;16.48;;;9.25;;
52432;SDS011;38352;53.244;6.594;2023-02-28T03:31:41;17.27;;;9.40;;
52432;SDS011;38352;53.244;6.594;2023-02-28T03:34:10;14.55;;;9.10;;
52432;SDS011;38352;53.244;6.594;2023-02-28T03:36:39;15.82;;;9.07;;
52432;SDS011;38352;53.244;6.594;2023-02-28T03:39:11;17.80;;;10.02;;
52432;SDS011;38352;53.244;6.594;2023-02-28T03:41:43;16.88;;;9.50;;
52432;SDS011;38352;53.244;6.594;2023-02-28T03:44:17;19.02;;;9.90;;
52432;SDS011;38352;53.244;6.594;2023-02-28T03:47:06;16.67;;;11.18;;
52432;SDS011;38352;53.244;6.594;2023-02-28T03:49:32;17.00;;;10.65;;
52432;SDS011;38352;53.244;6.594;2023-02-28T03:52:01;20.20;;;12.07;;
52432;SDS011;38352;53.244;6.594;2023-02-28T03:54:30;19.67;;;11.82;;
52432;SDS011;38352;53.244;6.594;2023-02-28T03:57:02;20.55;;;12.02;;
52432;SDS011;38352;53.244;6.594;2023-02-28T03:59:32;20.23;;;11.93;;
52432;SDS011;38352;53.244;6.594;2023-02-28T04:02:00;22.20;;;11.65;;
52432;SDS011;38352;53.244;6.594;2023-02-28T04:04:27;18.20;;;11.40;;
52432;SDS011;38352;53.244;6.594;2023-02-28T04:07:00;21.63;;;12.38;;
52432;SDS011;38352;53.244;6.594;2023-02-28T04:09:27;22.17;;;12.88;;
52432;SDS011;38352;53.244;6.594;2023-02-28T04:11:53;19.02;;;11.15;;
52432;SDS011;38352;53.244;6.594;2023-02-28T04:14:20;19.73;;;11.50;;
52432;SDS011;38352;53.244;6.594;2023-02-28T04:16:47;17.23;;;9.63;;
52432;SDS011;38352;53.244;6.594;2023-02-28T04:19:13;17.42;;;10.35;;
52432;SDS011;38352;53.244;6.594;2023-02-28T04:21:42;18.70;;;11.55;;
52432;SDS011;38352;53.244;6.594;2023-02-28T04:24:09;16.45;;;9.75;;
52432;SDS011;38352;53.244;6.594;2023-02-28T04:26:39;17.55;;;10.05;;
52432;SDS011;38352;53.244;6.594;2023-02-28T04:29:06;18.35;;;11.02;;
52432;SDS011;38352;53.244;6.594;2023-02-28T04:31:32;19.95;;;10.25;;
52432;SDS011;38352;53.244;6.594;2023-02-28T04:33:59;16.63;;;9.90;;
52432;SDS011;38352;53.244;6.594;2023-02-28T04:36:25;15.82;;;9.38;;
52432;SDS011;38352;53.244;6.594;2023-02-28T04:38:51;16.50;;;9.18;;
52432;SDS011;38352;53.244;6.594;2023-02-28T04:41:17;13.77;;;8.13;;
52432;SDS011;38352;53.244;6.594;2023-02-28T04:43:43;13.80;;;7.85;;
52432;SDS011;38352;53.244;6.594;2023-02-28T04:46:10;10.77;;;6.95;;
52432;SDS011;38352;53.244;6.594;2023-02-28T04:48:36;11.65;;;7.18;;
52432;SDS011;38352;53.244;6.594;2023-02-28T04:51:10;10.65;;;6.88;;
52432;SDS011;38352;53.244;6.594;2023-02-28T04:53:37;9.50;;;5.50;;
52432;SDS011;38352;53.244;6.594;2023-02-28T04:56:04;10.60;;;5.88;;
52432;SDS011;38352;53.244;6.594;2023-02-28T04:58:31;9.70;;;6.20;;
52432;SDS011;38352;53.244;6.594;2023-02-28T05:01:01;10.18;;;5.90;;
52432;SDS011;38352;53.244;6.594;2023-02-28T05:03:27;9.60;;;5.93;;
52432;SDS011;38352;53.244;6.594;2023-02-28T05:05:53;11.30;;;6.70;;
52432;SDS011;38352;53.244;6.594;2023-02-28T05:08:19;9.77;;;6.45;;
52432;SDS011;38352;53.244;6.594;2023-02-28T05:10:45;10.32;;;6.25;;
52432;SDS011;38352;53.244;6.594;2023-02-28T05:13:12;11.85;;;6.90;;
52432;SDS011;38352;53.244;6.594;2023-02-28T05:15:38;11.68;;;6.07;;
52432;SDS011;38352;53.244;6.594;2023-02-28T05:18:04;9.35;;;6.15;;
52432;SDS011;38352;53.244;6.594;2023-02-28T05:20:30;10.73;;;6.43;;
52432;SDS011;38352;53.244;6.594;2023-02-28T05:22:56;13.90;;;6.70;;
52432;SDS011;38352;53.244;6.594;2023-02-28T05:25:23;12.70;;;6.82;;
52432;SDS011;38352;53.244;6.594;2023-02-28T05:27:49;10.25;;;5.85;;
52432;SDS011;38352;53.244;6.594;2023-02-28T05:30:16;12.98;;;6.47;;
52432;SDS011;38352;53.244;6.594;2023-02-28T05:32:42;13.32;;;6.10;;
52432;SDS011;38352;53.244;6.594;2023-02-28T05:35:08;11.57;;;6.22;;
52432;SDS011;38352;53.244;6.594;2023-02-28T05:37:35;9.95;;;6.43;;
52432;SDS011;38352;53.244;6.594;2023-02-28T05:40:01;10.93;;;7.05;;
52432;SDS011;38352;53.244;6.594;2023-02-28T05:42:31;11.20;;;6.60;;
52432;SDS011;38352;53.244;6.594;2023-02-28T05:44:57;11.18;;;6.53;;
52432;SDS011;38352;53.244;6.594;2023-02-28T05:47:23;15.15;;;6.70;;
52432;SDS011;38352;53.244;6.594;2023-02-28T05:49:49;13.07;;;6.70;;
52432;SDS011;38352;53.244;6.594;2023-02-28T05:52:15;12.25;;;6.55;;
52432;SDS011;38352;53.244;6.594;2023-02-28T05:54:41;13.30;;;7.35;;
52432;SDS011;38352;53.244;6.594;2023-02-28T05:57:07;13.57;;;7.30;;
52432;SDS011;38352;53.244;6.594;2023-02-28T05:59:33;13.60;;;6.97;;
52432;SDS011;38352;53.244;6.594;2023-02-28T06:01:59;15.13;;;8.43;;
52432;SDS011;38352;53.244;6.594;2023-02-28T06:04:25;12.68;;;7.40;;
52432;SDS011;38352;53.244;6.594;2023-02-28T06:06:51;15.23;;;8.40;;
52432;SDS011;38352;53.244;6.594;2023-02-28T06:09:17;16.40;;;7.78;;
52432;SDS011;38352;53.244;6.594;2023-02-28T06:11:44;18.55;;;8.65;;
52432;SDS011;38352;53.244;6.594;2023-02-28T06:14:17;15.35;;;8.35;;
52432;SDS011;38352;53.244;6.594;2023-02-28T06:16:44;13.63;;;7.80;;
52432;SDS011;38352;53.244;6.594;2023-02-28T06:19:10;17.92;;;8.48;;
52432;SDS011;38352;53.244;6.594;2023-02-28T06:21:36;17.23;;;9.10;;
52432;SDS011;38352;53.244;6.594;2023-02-28T06:24:03;20.80;;;9.13;;
52432;SDS011;38352;53.244;6.594;2023-02-28T06:26:29;18.65;;;9.55;;
52432;SDS011;38352;53.244;6.594;2023-02-28T06:28:55;18.77;;;9.75;;
52432;SDS011;38352;53.244;6.594;2023-02-28T06:31:22;19.00;;;9.57;;
52432;SDS011;38352;53.244;6.594;2023-02-28T06:33:49;18.95;;;10.23;;
52432;SDS011;38352;53.244;6.594;2023-02-28T06:36:15;19.15;;;9.65;;
52432;SDS011;38352;53.244;6.594;2023-02-28T06:38:42;18.75;;;9.30;;
52432;SDS011;38352;53.244;6.594;2023-02-28T06:41:08;18.65;;;9.90;;
52432;SDS011;38352;53.244;6.594;2023-02-28T06:43:36;16.55;;;9.13;;
52432;SDS011;38352;53.244;6.594;2023-02-28T06:46:03;17.60;;;9.00;;
52432;SDS011;38352;53.244;6.594;2023-02-28T06:48:30;14.55;;;8.98;;
52432;SDS011;38352;53.244;6.594;2023-02-28T06:51:04;16.35;;;8.80;;
52432;SDS011;38352;53.244;6.594;2023-02-28T06:53:30;17.52;;;10.02;;
52432;SDS011;38352;53.244;6.594;2023-02-28T06:55:56;18.95;;;9.30;;
52432;SDS011;38352;53.244;6.594;2023-02-28T06:58:22;16.83;;;8.15;;
52432;SDS011;38352;53.244;6.594;2023-02-28T07:00:50;16.45;;;8.10;;
52432;SDS011;38352;53.244;6.594;2023-02-28T07:03:16;17.98;;;9.05;;
52432;SDS011;38352;53.244;6.594;2023-02-28T07:05:43;17.05;;;8.57;;
52432;SDS011;38352;53.244;6.594;2023-02-28T07:08:10;16.30;;;8.63;;
52432;SDS011;38352;53.244;6.594;2023-02-28T07:10:39;17.83;;;9.45;;
52432;SDS011;38352;53.244;6.594;2023-02-28T07:13:05;18.55;;;10.00;;
52432;SDS011;38352;53.244;6.594;2023-02-28T07:15:31;20.40;;;10.10;;
52432;SDS011;38352;53.244;6.594;2023-02-28T07:17:57;20.70;;;10.57;;
52432;SDS011;38352;53.244;6.594;2023-02-28T07:20:24;21.88;;;11.30;;
52432;SDS011;38352;53.244;6.594;2023-02-28T07:22:50;19.08;;;9.57;;
52432;SDS011;38352;53.244;6.594;2023-02-28T07:25:27;19.77;;;9.85;;
52432;SDS011;38352;53.244;6.594;2023-02-28T07:27:54;21.58;;;10.57;;
52432;SDS011;38352;53.244;6.594;2023-02-28T07:30:20;23.05;;;11.25;;
52432;SDS011;38352;53.244;6.594;2023-02-28T07:32:46;22.20;;;12.00;;
52432;SDS011;38352;53.244;6.594;2023-02-28T07:35:13;22.38;;;11.85;;
52432;SDS011;38352;53.244;6.594;2023-02-28T07:37:40;23.25;;;11.45;;
52432;SDS011;38352;53.244;6.594;2023-02-28T07:40:07;21.23;;;11.50;;
52432;SDS011;38352;53.244;6.594;2023-02-28T07:42:34;18.98;;;11.13;;
52432;SDS011;38352;53.244;6.594;2023-02-28T07:45:01;20.23;;;11.48;;
52432;SDS011;38352;53.244;6.594;2023-02-28T07:47:28;18.52;;;11.55;;
52432;SDS011;38352;53.244;6.594;2023-02-28T07:49:55;20.15;;;11.52;;
52432;SDS011;38352;53.244;6.594;2023-02-28T07:52:21;21.75;;;11.93;;
52432;SDS011;38352;53.244;6.594;2023-02-28T07:54:48;19.50;;;10.52;;
52432;SDS011;38352;53.244;6.594;2023-02-28T07:57:15;18.92;;;10.90;;
52432;SDS011;38352;53.244;6.594;2023-02-28T07:59:41;21.10;;;10.88;;
52432;SDS011;38352;53.244;6.594;2023-02-28T08:02:10;23.45;;;12.05;;
52432;SDS011;38352;53.244;6.594;2023-02-28T08:04:38;23.38;;;10.38;;
52432;SDS011;38352;53.244;6.594;2023-02-28T08:07:04;19.33;;;10.85;;
52432;SDS011;38352;53.244;6.594;2023-02-28T08:09:30;23.95;;;11.77;;
52432;SDS011;38352;53.244;6.594;2023-02-28T08:11:56;20.00;;;10.88;;
52432;SDS011;38352;53.244;6.594;2023-02-28T08:14:22;19.50;;;11.00;;
52432;SDS011;38352;53.244;6.594;2023-02-28T08:16:48;21.83;;;11.05;;
52432;SDS011;38352;53.244;6.594;2023-02-28T08:19:14;19.90;;;11.18;;
52432;SDS011;38352;53.244;6.594;2023-02-28T08:21:40;22.05;;;11.55;;
52432;SDS011;38352;53.244;6.594;2023-02-28T08:24:06;18.17;;;11.48;;
52432;SDS011;38352;53.244;6.594;2023-02-28T08:26:32;20.63;;;10.98;;
52432;SDS011;38352;53.244;6.594;2023-02-28T08:28:58;16.92;;;10.90;;
52432;SDS011;38352;53.244;6.594;2023-02-28T08:31:25;24.33;;;11.32;;
52432;SDS011;38352;53.244;6.594;2023-02-28T08:33:51;21.08;;;11.10;;
52432;SDS011;38352;53.244;6.594;2023-02-28T08:36:18;16.40;;;10.07;;
52432;SDS011;38352;53.244;6.594;2023-02-28T08:38:44;19.27;;;10.60;;
52432;SDS011;38352;53.244;6.594;2023-02-28T08:41:11;22.00;;;10.95;;
52432;SDS011;38352;53.244;6.594;2023-02-28T08:43:38;19.75;;;10.80;;
52432;SDS011;38352;53.244;6.594;2023-02-28T08:46:05;21.73;;;10.45;;
52432;SDS011;38352;53.244;6.594;2023-02-28T08:48:32;19.83;;;12.05;;
52432;SDS011;38352;53.244;6.594;2023-02-28T08:50:59;20.23;;;10.57;;
52432;SDS011;38352;53.244;6.594;2023-02-28T08:53:26;18.63;;;11.30;;
52432;SDS011;38352;53.244;6.594;2023-02-28T08:55:56;19.48;;;10.82;;
52432;SDS011;38352;53.244;6.594;2023-02-28T08:58:22;19.13;;;11.00;;
52432;SDS011;38352;53.244;6.594;2023-02-28T09:00:48;20.23;;;11.38;;
52432;SDS011;38352;53.244;6.594;2023-02-28T09:03:15;20.85;;;11.82;;
52432;SDS011;38352;53.244;6.594;2023-02-28T09:05:51;18.70;;;10.40;;
52432;SDS011;38352;53.244;6.594;2023-02-28T09:08:17;18.58;;;10.63;;
52432;SDS011;38352;53.244;6.594;2023-02-28T09:10:43;19.52;;;10.20;;
52432;SDS011;38352;53.244;6.594;2023-02-28T09:13:09;18.85;;;10.18;;
52432;SDS011;38352;53.244;6.594;2023-02-28T09:15:36;16.17;;;9.48;;
52432;SDS011;38352;53.244;6.594;2023-02-28T09:18:03;17.85;;;9.80;;
52432;SDS011;38352;53.244;6.594;2023-02-28T09:20:29;17.35;;;9.40;;
52432;SDS011;38352;53.244;6.594;2023-02-28T09:22:55;18.27;;;10.30;;
52432;SDS011;38352;53.244;6.594;2023-02-28T09:25:21;18.40;;;10.52;;
52432;SDS011;38352;53.244;6.594;2023-02-28T09:27:47;18.35;;;10.23;;
52432;SDS011;38352;53.244;6.594;2023-02-28T09:30:13;21.65;;;10.45;;
52432;SDS011;38352;53.244;6.594;2023-02-28T09:32:40;16.48;;;10.23;;
52432;SDS011;38352;53.244;6.594;2023-02-28T09:35:06;15.73;;;9.27;;
52432;SDS011;38352;53.244;6.594;2023-02-28T09:37:38;18.77;;;10.63;;
52432;SDS011;38352;53.244;6.594;2023-02-28T09:40:04;17.55;;;10.23;;
52432;SDS011;38352;53.244;6.594;2023-02-28T09:42:32;15.77;;;9.32;;
52432;SDS011;38352;53.244;6.594;2023-02-28T09:45:03;17.65;;;9.65;;
52432;SDS011;38352;53.244;6.594;2023-02-28T09:47:39;18.30;;;10.20;;
52432;SDS011;38352;53.244;6.594;2023-02-28T09:50:11;19.20;;;10.00;;
52432;SDS011;38352;53.244;6.594;2023-02-28T09:52:40;16.50;;;9.77;;
52432;SDS011;38352;53.244;6.594;2023-02-28T09:57:48;17.77;;;10.10;;
52432;SDS011;38352;53.244;6.594;2023-02-28T10:00:18;17.90;;;10.35;;
52432;SDS011;38352;53.244;6.594;2023-02-28T10:05:14;16.27;;;9.73;;
52432;SDS011;38352;53.244;6.594;2023-02-28T10:12:46;15.98;;;9.25;;
52432;SDS011;38352;53.244;6.594;2023-02-28T10:15:15;15.30;;;9.35;;
52432;SDS011;38352;53.244;6.594;2023-02-28T10:17:43;18.30;;;9.07;;
52432;SDS011;38352;53.244;6.594;2023-02-28T10:20:11;17.45;;;9.48;;
52432;SDS011;38352;53.244;6.594;2023-02-28T10:25:24;16.55;;;8.63;;
52432;SDS011;38352;53.244;6.594;2023-02-28T10:27:56;14.02;;;8.52;;
52432;SDS011;38352;53.244;6.594;2023-02-28T10:30:23;14.38;;;8.80;;
52432;SDS011;38352;53.244;6.594;2023-02-28T10:32:50;13.70;;;7.32;;
52432;SDS011;38352;53.244;6.594;2023-02-28T10:35:22;14.13;;;8.35;;
52432;SDS011;38352;53.244;6.594;2023-02-28T10:37:50;12.85;;;7.82;;
52432;SDS011;38352;53.244;6.594;2023-02-28T10:45:20;11.75;;;6.35;;
52432;SDS011;38352;53.244;6.594;2023-02-28T10:47:49;16.60;;;7.65;;
52432;SDS011;38352;53.244;6.594;2023-02-28T10:52:54;13.77;;;7.13;;
52432;SDS011;38352;53.244;6.594;2023-02-28T10:57:47;11.23;;;7.43;;
52432;SDS011;38352;53.244;6.594;2023-02-28T11:00:15;12.30;;;6.72;;
52432;SDS011;38352;53.244;6.594;2023-02-28T11:02:41;11.10;;;6.80;;
52432;SDS011;38352;53.244;6.594;2023-02-28T11:05:34;14.25;;;7.05;;
52432;SDS011;38352;53.244;6.594;2023-02-28T11:08:12;12.05;;;6.22;;
52432;SDS011;38352;53.244;6.594;2023-02-28T11:10:39;11.38;;;6.47;;
52432;SDS011;38352;53.244;6.594;2023-02-28T11:13:16;12.50;;;7.07;;
52432;SDS011;38352;53.244;6.594;2023-02-28T11:15:45;11.90;;;6.20;;
52432;SDS011;38352;53.244;6.594;2023-02-28T11:20:47;10.18;;;6.13;;
52432;SDS011;38352;53.244;6.594;2023-02-28T11:23:14;10.18;;;6.28;;
52432;SDS011;38352;53.244;6.594;2023-02-28T11:25:45;9.93;;;5.90;;
52432;SDS011;38352;53.244;6.594;2023-02-28T11:31:05;10.30;;;5.00;;
52432;SDS011;38352;53.244;6.594;2023-02-28T11:35:59;8.43;;;5.07;;
52432;SDS011;38352;53.244;6.594;2023-02-28T11:38:26;14.55;;;6.13;;
52432;SDS011;38352;53.244;6.594;2023-02-28T11:48:37;10.32;;;5.70;;
52432;SDS011;38352;53.244;6.594;2023-02-28T12:06:34;12.50;;;7.15;;
52432;SDS011;38352;53.244;6.594;2023-02-28T12:12:11;9.95;;;5.75;;
52432;SDS011;38352;53.244;6.594;2023-02-28T12:14:59;26.85;;;6.30;;
52432;SDS011;38352;53.244;6.594;2023-02-28T12:17:33;10.00;;;6.53;;
52432;SDS011;38352;53.244;6.594;2023-02-28T12:28:01;8.45;;;5.20;;
52432;SDS011;38352;53.244;6.594;2023-02-28T12:30:28;9.63;;;5.20;;
52432;SDS011;38352;53.244;6.594;2023-02-28T12:32:56;11.15;;;6.07;;
52432;SDS011;38352;53.244;6.594;2023-02-28T12:35:31;11.23;;;5.95;;
52432;SDS011;38352;53.244;6.594;2023-02-28T12:40:45;8.77;;;5.88;;
52432;SDS011;38352;53.244;6.594;2023-02-28T12:43:13;9.68;;;6.43;;
52432;SDS011;38352;53.244;6.594;2023-02-28T12:48:48;9.77;;;6.20;;
52432;SDS011;38352;53.244;6.594;2023-02-28T12:51:06;7.75;;;5.22;;
52432;SDS011;38352;53.244;6.594;2023-02-28T13:11:54;8.88;;;5.80;;
52432;SDS011;38352;53.244;6.594;2023-02-28T13:14:02;10.25;;;5.90;;
52432;SDS011;38352;53.244;6.594;2023-02-28T13:16:54;8.80;;;6.00;;
52432;SDS011;38352;53.244;6.594;2023-02-28T13:19:16;8.02;;;5.70;;
52432;SDS011;38352;53.244;6.594;2023-02-28T13:21:43;10.60;;;5.95;;
52432;SDS011;38352;53.244;6.594;2023-02-28T13:24:10;9.50;;;6.03;;
52432;SDS011;38352;53.244;6.594;2023-02-28T13:31:31;9.02;;;5.85;;
52432;SDS011;38352;53.244;6.594;2023-02-28T13:34:05;9.40;;;6.18;;
52432;SDS011;38352;53.244;6.594;2023-02-28T13:36:32;8.73;;;5.90;;
52432;SDS011;38352;53.244;6.594;2023-02-28T13:39:02;11.52;;;6.53;;
52432;SDS011;38352;53.244;6.594;2023-02-28T13:46:26;8.98;;;5.80;;
52432;SDS011;38352;53.244;6.594;2023-02-28T13:48:52;7.95;;;5.70;;
52432;SDS011;38352;53.244;6.594;2023-02-28T13:54:04;8.85;;;5.50;;
52432;SDS011;38352;53.244;6.594;2023-02-28T13:56:35;9.68;;;6.60;;
52432;SDS011;38352;53.244;6.594;2023-02-28T13:59:24;7.40;;;5.70;;
52432;SDS011;38352;53.244;6.594;2023-02-28T14:02:08;8.75;;;6.32;;
52432;SDS011;38352;53.244;6.594;2023-02-28T14:05:12;10.75;;;6.20;;
52432;SDS011;38352;53.244;6.594;2023-02-28T14:07:33;7.18;;;5.45;;
52432;SDS011;38352;53.244;6.594;2023-02-28T14:10:04;10.75;;;6.78;;
52432;SDS011;38352;53.244;6.594;2023-02-28T14:20:47;12.27;;;7.22;;
52432;SDS011;38352;53.244;6.594;2023-02-28T14:23:20;8.55;;;6.88;;
52432;SDS011;38352;53.244;6.594;2023-02-28T14:26:06;10.10;;;6.95;;
52432;SDS011;38352;53.244;6.594;2023-02-28T14:31:10;10.40;;;6.88;;
52432;SDS011;38352;53.244;6.594;2023-02-28T14:36:32;13.13;;;8.50;;
52432;SDS011;38352;53.244;6.594;2023-02-28T14:38:59;10.07;;;6.20;;
52432;SDS011;38352;53.244;6.594;2023-02-28T14:41:31;18.13;;;12.98;;
52432;SDS011;38352;53.244;6.594;2023-02-28T14:44:02;8.85;;;6.53;;
52432;SDS011;38352;53.244;6.594;2023-02-28T14:46:30;10.82;;;6.38;;
52432;SDS011;38352;53.244;6.594;2023-02-28T14:49:01;11.38;;;7.82;;
52432;SDS011;38352;53.244;6.594;2023-02-28T14:51:27;10.05;;;7.32;;
52432;SDS011;38352;53.244;6.594;2023-02-28T14:53:57;12.23;;;7.50;;
52432;SDS011;38352;53.244;6.594;2023-02-28T14:56:24;12.95;;;7.50;;
52432;SDS011;38352;53.244;6.594;2023-02-28T14:58:53;9.27;;;7.70;;
52432;SDS011;38352;53.244;6.594;2023-02-28T15:01:20;12.02;;;7.70;;
52432;SDS011;38352;53.244;6.594;2023-02-28T15:03:47;11.80;;;7.68;;
52432;SDS011;38352;53.244;6.594;2023-02-28T15:06:14;12.07;;;8.00;;
52432;SDS011;38352;53.244;6.594;2023-02-28T15:08:42;12.75;;;8.52;;
52432;SDS011;38352;53.244;6.594;2023-02-28T15:11:13;11.60;;;7.53;;
52432;SDS011;38352;53.244;6.594;2023-02-28T15:13:49;12.57;;;7.68;;
52432;SDS011;38352;53.244;6.594;2023-02-28T15:16:17;9.85;;;7.15;;
52432;SDS011;38352;53.244;6.594;2023-02-28T15:21:15;11.02;;;7.18;;
52432;SDS011;38352;53.244;6.594;2023-02-28T15:23:43;10.55;;;7.18;;
52432;SDS011;38352;53.244;6.594;2023-02-28T15:26:15;11.57;;;7.40;;
52432;SDS011;38352;53.244;6.594;2023-02-28T15:28:43;10.73;;;7.13;;
52432;SDS011;38352;53.244;6.594;2023-02-28T15:31:20;10.85;;;7.30;;
52432;SDS011;38352;53.244;6.594;2023-02-28T15:33:57;10.95;;;7.10;;
52432;SDS011;38352;53.244;6.594;2023-02-28T15:36:29;11.10;;;7.10;;
52432;SDS011;38352;53.244;6.594;2023-02-28T15:38:57;10.65;;;7.53;;
52432;SDS011;38352;53.244;6.594;2023-02-28T15:41:27;9.77;;;7.38;;
52432;SDS011;38352;53.244;6.594;2023-02-28T15:46:39;12.45;;;8.05;;
52432;SDS011;38352;53.244;6.594;2023-02-28T15:49:12;20.45;;;11.32;;
52432;SDS011;38352;53.244;6.594;2023-02-28T15:51:40;12.07;;;7.85;;
52432;SDS011;38352;53.244;6.594;2023-02-28T15:54:07;10.52;;;7.35;;
52432;SDS011;38352;53.244;6.594;2023-02-28T15:56:43;9.32;;;6.97;;
52432;SDS011;38352;53.244;6.594;2023-02-28T15:59:14;11.43;;;7.65;;
52432;SDS011;38352;53.244;6.594;2023-02-28T16:01:41;11.05;;;7.53;;
52432;SDS011;38352;53.244;6.594;2023-02-28T16:04:18;12.50;;;7.93;;
52432;SDS011;38352;53.244;6.594;2023-02-28T16:06:44;12.50;;;7.90;;
52432;SDS011;38352;53.244;6.594;2023-02-28T16:09:12;15.07;;;8.55;;
52432;SDS011;38352;53.244;6.594;2023-02-28T16:11:40;11.45;;;8.18;;
52432;SDS011;38352;53.244;6.594;2023-02-28T16:14:20;13.95;;;7.63;;
52432;SDS011;38352;53.244;6.594;2023-02-28T16:16:52;11.57;;;7.88;;
52432;SDS011;38352;53.244;6.594;2023-02-28T16:19:18;12.50;;;8.00;;
52432;SDS011;38352;53.244;6.594;2023-02-28T16:21:45;10.10;;;7.53;;
52432;SDS011;38352;53.244;6.594;2023-02-28T16:24:11;11.93;;;7.60;;
52432;SDS011;38352;53.244;6.594;2023-02-28T16:26:38;11.38;;;7.72;;
52432;SDS011;38352;53.244;6.594;2023-02-28T16:29:05;11.10;;;8.00;;
52432;SDS011;38352;53.244;6.594;2023-02-28T16:31:35;10.80;;;7.70;;
52432;SDS011;38352;53.244;6.594;2023-02-28T16:34:02;9.73;;;7.43;;
52432;SDS011;38352;53.244;6.594;2023-02-28T16:36:28;12.55;;;8.00;;
52432;SDS011;38352;53.244;6.594;2023-02-28T16:38:55;14.57;;;9.00;;
52432;SDS011;38352;53.244;6.594;2023-02-28T16:41:22;11.63;;;7.90;;
52432;SDS011;38352;53.244;6.594;2023-02-28T16:43:50;12.45;;;8.13;;
52432;SDS011;38352;53.244;6.594;2023-02-28T16:46:17;12.82;;;8.35;;
52432;SDS011;38352;53.244;6.594;2023-02-28T16:48:44;13.43;;;8.50;;
52432;SDS011;38352;53.244;6.594;2023-02-28T16:51:11;11.30;;;8.20;;
52432;SDS011;38352;53.244;6.594;2023-02-28T16:53:37;11.77;;;8.02;;
52432;SDS011;38352;53.244;6.594;2023-02-28T16:56:03;12.70;;;8.45;;
52432;SDS011;38352;53.244;6.594;2023-02-28T16:58:32;10.07;;;7.78;;
52432;SDS011;38352;53.244;6.594;2023-02-28T17:01:01;12.98;;;8.60;;
52432;SDS011;38352;53.244;6.594;2023-02-28T17:03:27;13.30;;;8.48;;
52432;SDS011;38352;53.244;6.594;2023-02-28T17:05:54;15.73;;;9.05;;
52432;SDS011;38352;53.244;6.594;2023-02-28T17:08:20;12.25;;;8.57;;